sensor_id;sensor_type;location;lat;lon;timestamp;pressure;altitude;pressure_sealevel;temperature;humidity
63970;BME280;50156;37.772;-122.432;2022-08-11T00:01:12;101345.95;;;23.15;100.00
63970;BME280;50156;37.772;-122.432;2022-08-11T00:03:46;101346.72;;;23.20;100.00
63970;BME280;50156;37.772;-122.432;2022-08-11T00:06:23;101345.18;;;23.23;100.00
63970;BME280;50156;37.772;-122.432;2022-08-11T00:08:53;101341.03;;;23.11;100.00
63970;BME280;50156;37.772;-122.432;2022-08-11T00:11:32;101340.07;;;23.43;100.00
63970;BME280;50156;37.772;-122.432;2022-08-11T00:14:01;101337.10;;;22.81;100.00
63970;BME280;50156;37.772;-122.432;2022-08-11T00:16:30;101338.16;;;22.83;100.00
63970;BME280;50156;37.772;-122.432;2022-08-11T00:19:00;101336.28;;;22.82;100.00
63970;BME280;50156;37.772;-122.432;2022-08-11T00:21:29;101329.74;;;22.83;100.00
63970;BME280;50156;37.772;-122.432;2022-08-11T00:24:01;101330.87;;;22.74;100.00
63970;BME280;50156;37.772;-122.432;2022-08-11T00:26:30;101331.64;;;22.69;100.00
63970;BME280;50156;37.772;-122.432;2022-08-11T00:29:08;101332.29;;;22.78;100.00
63970;BME280;50156;37.772;-122.432;2022-08-11T00:31:37;101328.29;;;22.90;100.00
63970;BME280;50156;37.772;-122.432;2022-08-11T00:34:10;101323.72;;;22.83;100.00
63970;BME280;50156;37.772;-122.432;2022-08-11T00:36:44;101324.93;;;22.80;100.00
63970;BME280;50156;37.772;-122.432;2022-08-11T00:39:15;101321.67;;;22.91;100.00
63970;BME280;50156;37.772;-122.432;2022-08-11T00:41:54;101318.35;;;23.02;100.00
63970;BME280;50156;37.772;-122.432;2022-08-11T00:44:37;101323.20;;;22.85;100.00
63970;BME280;50156;37.772;-122.432;2022-08-11T00:47:17;101318.08;;;22.38;100.00
63970;BME280;50156;37.772;-122.432;2022-08-11T00:50:01;101315.77;;;22.43;100.00
63970;BME280;50156;37.772;-122.432;2022-08-11T00:52:58;101311.32;;;22.52;100.00
63970;BME280;50156;37.772;-122.432;2022-08-11T00:56:06;101309.46;;;22.30;100.00
63970;BME280;50156;37.772;-122.432;2022-08-11T01:00:10;101304.64;;;22.12;100.00
63970;BME280;50156;37.772;-122.432;2022-08-11T01:02:52;101308.53;;;22.35;100.00
63970;BME280;50156;37.772;-122.432;2022-08-11T01:05:40;101312.50;;;22.33;100.00
63970;BME280;50156;37.772;-122.432;2022-08-11T01:08:27;101304.25;;;22.23;100.00
63970;BME280;50156;37.772;-122.432;2022-08-11T01:12:04;101298.67;;;22.26;100.00
63970;BME280;50156;37.772;-122.432;2022-08-11T01:15:13;101295.10;;;22.20;100.00
63970;BME280;50156;37.772;-122.432;2022-08-11T01:18:51;101296.85;;;21.97;100.00
63970;BME280;50156;37.772;-122.432;2022-08-11T01:24:23;101284.11;;;21.89;100.00
63970;BME280;50156;37.772;-122.432;2022-08-11T01:27:25;101279.39;;;22.14;100.00
63970;BME280;50156;37.772;-122.432;2022-08-11T01:31:46;101276.14;;;21.93;100.00
63970;BME280;50156;37.772;-122.432;2022-08-11T01:38:58;101276.80;;;21.82;100.00
63970;BME280;50156;37.772;-122.432;2022-08-11T01:41:57;101282.94;;;21.51;100.00
63970;BME280;50156;37.772;-122.432;2022-08-11T01:44:52;101285.80;;;21.54;100.00
63970;BME280;50156;37.772;-122.432;2022-08-11T01:47:37;101288.13;;;21.27;100.00
63970;BME280;50156;37.772;-122.432;2022-08-11T01:50:15;101287.04;;;21.25;100.00
63970;BME280;50156;37.772;-122.432;2022-08-11T01:53:08;101287.24;;;21.20;100.00
63970;BME280;50156;37.772;-122.432;2022-08-11T01:55:46;101292.35;;;21.16;100.00
63970;BME280;50156;37.772;-122.432;2022-08-11T01:58:28;101287.87;;;21.18;100.00
63970;BME280;50156;37.772;-122.432;2022-08-11T02:01:13;101290.18;;;21.25;100.00
63970;BME280;50156;37.772;-122.432;2022-08-11T02:03:56;101292.63;;;21.43;100.00
63970;BME280;50156;37.772;-122.432;2022-08-11T02:06:33;101294.06;;;21.16;100.00
63970;BME280;50156;37.772;-122.432;2022-08-11T02:09:16;101301.88;;;20.89;100.00
63970;BME280;50156;37.772;-122.432;2022-08-11T02:11:50;101297.05;;;20.74;100.00
63970;BME280;50156;37.772;-122.432;2022-08-11T02:14:28;101297.08;;;20.84;100.00
63970;BME280;50156;37.772;-122.432;2022-08-11T02:17:16;101297.76;;;20.64;100.00
63970;BME280;50156;37.772;-122.432;2022-08-11T02:19:54;101297.69;;;20.59;100.00
63970;BME280;50156;37.772;-122.432;2022-08-11T02:22:30;101302.34;;;20.56;100.00
63970;BME280;50156;37.772;-122.432;2022-08-11T02:25:06;101306.68;;;20.76;100.00
63970;BME280;50156;37.772;-122.432;2022-08-11T02:27:41;101308.41;;;20.51;100.00
63970;BME280;50156;37.772;-122.432;2022-08-11T02:30:15;101307.73;;;20.60;100.00
63970;BME280;50156;37.772;-122.432;2022-08-11T02:32:50;101310.82;;;20.60;100.00
63970;BME280;50156;37.772;-122.432;2022-08-11T02:35:25;101307.74;;;20.40;100.00
63970;BME280;50156;37.772;-122.432;2022-08-11T02:38:07;101310.36;;;20.32;100.00
63970;BME280;50156;37.772;-122.432;2022-08-11T02:40:46;101314.31;;;20.21;100.00
63970;BME280;50156;37.772;-122.432;2022-08-11T02:43:26;101321.33;;;20.13;100.00
63970;BME280;50156;37.772;-122.432;2022-08-11T02:46:05;101320.40;;;19.89;100.00
63970;BME280;50156;37.772;-122.432;2022-08-11T02:48:55;101322.63;;;19.90;100.00
63970;BME280;50156;37.772;-122.432;2022-08-11T02:51:34;101320.10;;;19.88;100.00
63970;BME280;50156;37.772;-122.432;2022-08-11T02:54:14;101324.30;;;19.70;100.00
63970;BME280;50156;37.772;-122.432;2022-08-11T02:56:51;101327.56;;;19.69;100.00
63970;BME280;50156;37.772;-122.432;2022-08-11T02:59:32;101336.76;;;19.48;100.00
63970;BME280;50156;37.772;-122.432;2022-08-11T03:02:13;101340.86;;;19.17;100.00
63970;BME280;50156;37.772;-122.432;2022-08-11T03:04:59;101345.41;;;19.15;100.00
63970;BME280;50156;37.772;-122.432;2022-08-11T03:07:33;101349.19;;;19.07;100.00
63970;BME280;50156;37.772;-122.432;2022-08-11T03:10:16;101353.93;;;18.96;100.00
63970;BME280;50156;37.772;-122.432;2022-08-11T03:12:50;101352.87;;;18.80;100.00
63970;BME280;50156;37.772;-122.432;2022-08-11T03:15:26;101354.42;;;18.93;100.00
63970;BME280;50156;37.772;-122.432;2022-08-11T03:18:03;101355.40;;;18.73;100.00
63970;BME280;50156;37.772;-122.432;2022-08-11T03:20:56;101358.84;;;18.70;100.00
63970;BME280;50156;37.772;-122.432;2022-08-11T03:23:32;101356.76;;;18.56;100.00
63970;BME280;50156;37.772;-122.432;2022-08-11T03:26:08;101358.33;;;18.88;100.00
63970;BME280;50156;37.772;-122.432;2022-08-11T03:28:50;101358.66;;;18.70;100.00
63970;BME280;50156;37.772;-122.432;2022-08-11T03:31:25;101361.45;;;18.48;100.00
63970;BME280;50156;37.772;-122.432;2022-08-11T03:34:00;101362.65;;;18.54;100.00
63970;BME280;50156;37.772;-122.432;2022-08-11T03:37:10;101370.52;;;18.51;100.00
63970;BME280;50156;37.772;-122.432;2022-08-11T03:39:54;101371.44;;;18.50;100.00
63970;BME280;50156;37.772;-122.432;2022-08-11T03:42:32;101371.28;;;18.29;100.00
63970;BME280;50156;37.772;-122.432;2022-08-11T03:45:20;101372.57;;;18.24;100.00
63970;BME280;50156;37.772;-122.432;2022-08-11T03:48:04;101374.32;;;18.14;100.00
63970;BME280;50156;37.772;-122.432;2022-08-11T03:51:12;101378.22;;;18.18;100.00
63970;BME280;50156;37.772;-122.432;2022-08-11T03:54:13;101379.82;;;18.12;100.00
63970;BME280;50156;37.772;-122.432;2022-08-11T03:57:55;101387.33;;;18.18;100.00
63970;BME280;50156;37.772;-122.432;2022-08-11T04:00:45;101387.33;;;18.07;100.00
63970;BME280;50156;37.772;-122.432;2022-08-11T04:03:57;101391.14;;;18.10;100.00
63970;BME280;50156;37.772;-122.432;2022-08-11T04:06:51;101396.98;;;18.02;100.00
63970;BME280;50156;37.772;-122.432;2022-08-11T04:15:52;101406.70;;;17.76;100.00
63970;BME280;50156;37.772;-122.432;2022-08-11T04:19:00;101408.46;;;17.76;100.00
63970;BME280;50156;37.772;-122.432;2022-08-11T04:21:59;101414.10;;;17.64;100.00
63970;BME280;50156;37.772;-122.432;2022-08-11T04:27:23;101411.06;;;17.59;100.00
63970;BME280;50156;37.772;-122.432;2022-08-11T04:30:05;101413.27;;;17.55;100.00
63970;BME280;50156;37.772;-122.432;2022-08-11T04:35:38;101418.70;;;17.50;100.00
63970;BME280;50156;37.772;-122.432;2022-08-11T04:38:30;101425.72;;;17.52;100.00
63970;BME280;50156;37.772;-122.432;2022-08-11T04:42:04;101431.70;;;17.46;100.00
63970;BME280;50156;37.772;-122.432;2022-08-11T04:45:08;101436.73;;;17.41;100.00
63970;BME280;50156;37.772;-122.432;2022-08-11T04:47:59;101439.64;;;17.36;100.00
63970;BME280;50156;37.772;-122.432;2022-08-11T04:50:52;101438.97;;;17.35;100.00
63970;BME280;50156;37.772;-122.432;2022-08-11T04:53:38;101443.86;;;17.33;100.00
63970;BME280;50156;37.772;-122.432;2022-08-11T04:56:14;101447.57;;;17.33;100.00
63970;BME280;50156;37.772;-122.432;2022-08-11T05:00:02;101450.99;;;17.29;100.00
63970;BME280;50156;37.772;-122.432;2022-08-11T05:05:44;101447.13;;;17.20;100.00
63970;BME280;50156;37.772;-122.432;2022-08-11T05:09:08;101450.69;;;17.22;100.00
63970;BME280;50156;37.772;-122.432;2022-08-11T05:12:58;101453.13;;;17.17;100.00
63970;BME280;50156;37.772;-122.432;2022-08-11T05:15:35;101456.52;;;17.22;100.00
63970;BME280;50156;37.772;-122.432;2022-08-11T05:18:16;101458.03;;;17.14;100.00
63970;BME280;50156;37.772;-122.432;2022-08-11T05:20:51;101460.59;;;17.11;100.00
63970;BME280;50156;37.772;-122.432;2022-08-11T05:23:24;101462.46;;;17.05;100.00
63970;BME280;50156;37.772;-122.432;2022-08-11T05:25:58;101464.04;;;17.01;100.00
63970;BME280;50156;37.772;-122.432;2022-08-11T05:28:32;101466.51;;;17.03;100.00
63970;BME280;50156;37.772;-122.432;2022-08-11T05:31:05;101468.72;;;16.99;100.00
63970;BME280;50156;37.772;-122.432;2022-08-11T05:33:48;101469.95;;;16.96;100.00
63970;BME280;50156;37.772;-122.432;2022-08-11T05:36:27;101470.51;;;16.93;100.00
63970;BME280;50156;37.772;-122.432;2022-08-11T05:39:03;101471.80;;;16.94;100.00
63970;BME280;50156;37.772;-122.432;2022-08-11T05:41:32;101473.90;;;16.92;100.00
63970;BME280;50156;37.772;-122.432;2022-08-11T05:44:02;101477.69;;;16.86;100.00
63970;BME280;50156;37.772;-122.432;2022-08-11T05:46:38;101478.99;;;16.88;100.00
63970;BME280;50156;37.772;-122.432;2022-08-11T05:49:09;101481.83;;;16.83;100.00
63970;BME280;50156;37.772;-122.432;2022-08-11T05:51:41;101484.60;;;16.81;100.00
63970;BME280;50156;37.772;-122.432;2022-08-11T05:54:10;101484.08;;;16.82;100.00
63970;BME280;50156;37.772;-122.432;2022-08-11T05:56:46;101480.17;;;16.73;100.00
63970;BME280;50156;37.772;-122.432;2022-08-11T05:59:18;101485.53;;;16.74;100.00
63970;BME280;50156;37.772;-122.432;2022-08-11T06:01:47;101487.82;;;16.72;100.00
63970;BME280;50156;37.772;-122.432;2022-08-11T06:04:18;101490.50;;;16.68;100.00
63970;BME280;50156;37.772;-122.432;2022-08-11T06:06:51;101492.81;;;16.67;100.00
63970;BME280;50156;37.772;-122.432;2022-08-11T06:09:25;101497.11;;;16.66;100.00
63970;BME280;50156;37.772;-122.432;2022-08-11T06:11:59;101499.54;;;16.67;100.00
63970;BME280;50156;37.772;-122.432;2022-08-11T06:14:29;101494.52;;;16.66;100.00
63970;BME280;50156;37.772;-122.432;2022-08-11T06:17:01;101496.96;;;16.65;100.00
63970;BME280;50156;37.772;-122.432;2022-08-11T06:19:34;101497.83;;;16.58;100.00
63970;BME280;50156;37.772;-122.432;2022-08-11T06:22:04;101498.88;;;16.59;100.00
63970;BME280;50156;37.772;-122.432;2022-08-11T06:24:36;101498.44;;;16.62;100.00
63970;BME280;50156;37.772;-122.432;2022-08-11T06:27:07;101491.79;;;16.62;100.00
63970;BME280;50156;37.772;-122.432;2022-08-11T06:29:37;101492.74;;;16.62;100.00
63970;BME280;50156;37.772;-122.432;2022-08-11T06:32:06;101497.74;;;16.64;100.00
63970;BME280;50156;37.772;-122.432;2022-08-11T06:34:48;101499.72;;;16.62;100.00
63970;BME280;50156;37.772;-122.432;2022-08-11T06:37:24;101500.24;;;16.64;100.00
63970;BME280;50156;37.772;-122.432;2022-08-11T06:40:06;101502.71;;;16.59;100.00
63970;BME280;50156;37.772;-122.432;2022-08-11T06:42:45;101501.12;;;16.61;100.00
63970;BME280;50156;37.772;-122.432;2022-08-11T06:45:27;101497.49;;;16.60;100.00
63970;BME280;50156;37.772;-122.432;2022-08-11T06:47:56;101496.80;;;16.54;100.00
63970;BME280;50156;37.772;-122.432;2022-08-11T06:50:28;101501.83;;;16.52;100.00
63970;BME280;50156;37.772;-122.432;2022-08-11T06:52:57;101500.55;;;16.50;100.00
63970;BME280;50156;37.772;-122.432;2022-08-11T06:55:28;101496.40;;;16.51;100.00
63970;BME280;50156;37.772;-122.432;2022-08-11T06:57:58;101499.31;;;16.51;100.00
63970;BME280;50156;37.772;-122.432;2022-08-11T07:00:28;101492.37;;;16.45;100.00
63970;BME280;50156;37.772;-122.432;2022-08-11T07:03:02;101488.86;;;16.46;100.00
63970;BME280;50156;37.772;-122.432;2022-08-11T07:05:43;101493.78;;;16.43;100.00
63970;BME280;50156;37.772;-122.432;2022-08-11T07:08:46;101489.80;;;16.42;100.00
63970;BME280;50156;37.772;-122.432;2022-08-11T07:11:43;101489.01;;;16.40;100.00
63970;BME280;50156;37.772;-122.432;2022-08-11T07:14:22;101487.17;;;16.34;100.00
63970;BME280;50156;37.772;-122.432;2022-08-11T07:16:52;101479.50;;;16.31;100.00
63970;BME280;50156;37.772;-122.432;2022-08-11T07:19:25;101485.16;;;16.30;100.00
63970;BME280;50156;37.772;-122.432;2022-08-11T07:21:56;101487.13;;;16.30;100.00
63970;BME280;50156;37.772;-122.432;2022-08-11T07:24:31;101491.47;;;16.32;100.00
63970;BME280;50156;37.772;-122.432;2022-08-11T07:27:00;101493.07;;;16.32;100.00
63970;BME280;50156;37.772;-122.432;2022-08-11T07:29:32;101494.06;;;16.31;100.00
63970;BME280;50156;37.772;-122.432;2022-08-11T07:32:12;101493.50;;;16.33;100.00
63970;BME280;50156;37.772;-122.432;2022-08-11T07:34:47;101497.47;;;16.33;100.00
63970;BME280;50156;37.772;-122.432;2022-08-11T07:37:19;101494.37;;;16.29;100.00
63970;BME280;50156;37.772;-122.432;2022-08-11T07:39:50;101492.99;;;16.28;100.00
63970;BME280;50156;37.772;-122.432;2022-08-11T07:42:22;101495.50;;;16.28;100.00
63970;BME280;50156;37.772;-122.432;2022-08-11T07:44:56;101497.13;;;16.26;100.00
63970;BME280;50156;37.772;-122.432;2022-08-11T07:47:27;101499.61;;;16.26;100.00
63970;BME280;50156;37.772;-122.432;2022-08-11T07:49:55;101500.25;;;16.26;100.00
63970;BME280;50156;37.772;-122.432;2022-08-11T07:52:29;101498.44;;;16.29;100.00
63970;BME280;50156;37.772;-122.432;2022-08-11T07:55:00;101496.62;;;16.28;100.00
63970;BME280;50156;37.772;-122.432;2022-08-11T07:57:31;101498.80;;;16.28;100.00
63970;BME280;50156;37.772;-122.432;2022-08-11T08:00:00;101499.95;;;16.30;100.00
63970;BME280;50156;37.772;-122.432;2022-08-11T08:02:29;101499.20;;;16.26;100.00
63970;BME280;50156;37.772;-122.432;2022-08-11T08:04:59;101500.30;;;16.28;100.00
63970;BME280;50156;37.772;-122.432;2022-08-11T08:07:27;101497.51;;;16.31;100.00
63970;BME280;50156;37.772;-122.432;2022-08-11T08:09:56;101499.71;;;16.29;100.00
63970;BME280;50156;37.772;-122.432;2022-08-11T08:12:26;101499.06;;;16.35;100.00
63970;BME280;50156;37.772;-122.432;2022-08-11T08:14:56;101503.76;;;16.39;100.00
63970;BME280;50156;37.772;-122.432;2022-08-11T08:17:25;101497.77;;;16.44;100.00
63970;BME280;50156;37.772;-122.432;2022-08-11T08:19:54;101495.62;;;16.42;100.00
63970;BME280;50156;37.772;-122.432;2022-08-11T08:22:23;101491.51;;;16.45;100.00
63970;BME280;50156;37.772;-122.432;2022-08-11T08:24:51;101487.43;;;16.43;100.00
63970;BME280;50156;37.772;-122.432;2022-08-11T08:27:21;101481.76;;;16.41;100.00
63970;BME280;50156;37.772;-122.432;2022-08-11T08:29:50;101480.31;;;16.43;100.00
63970;BME280;50156;37.772;-122.432;2022-08-11T08:32:19;101477.73;;;16.45;100.00
63970;BME280;50156;37.772;-122.432;2022-08-11T08:34:49;101474.65;;;16.42;100.00
63970;BME280;50156;37.772;-122.432;2022-08-11T08:37:22;101477.21;;;16.42;100.00
63970;BME280;50156;37.772;-122.432;2022-08-11T08:39:51;101475.92;;;16.37;100.00
63970;BME280;50156;37.772;-122.432;2022-08-11T08:42:25;101474.35;;;16.40;100.00
63970;BME280;50156;37.772;-122.432;2022-08-11T08:44:58;101475.02;;;16.36;100.00
63970;BME280;50156;37.772;-122.432;2022-08-11T08:47:29;101473.42;;;16.31;100.00
63970;BME280;50156;37.772;-122.432;2022-08-11T08:50:02;101476.61;;;16.39;100.00
63970;BME280;50156;37.772;-122.432;2022-08-11T08:52:36;101473.78;;;16.33;100.00
63970;BME280;50156;37.772;-122.432;2022-08-11T08:55:07;101471.25;;;16.33;100.00
63970;BME280;50156;37.772;-122.432;2022-08-11T08:57:37;101469.86;;;16.30;100.00
63970;BME280;50156;37.772;-122.432;2022-08-11T09:00:08;101466.72;;;16.28;100.00
63970;BME280;50156;37.772;-122.432;2022-08-11T09:02:37;101469.27;;;16.21;100.00
63970;BME280;50156;37.772;-122.432;2022-08-11T09:05:06;101471.14;;;16.25;100.00
63970;BME280;50156;37.772;-122.432;2022-08-11T09:07:36;101468.72;;;16.26;100.00
63970;BME280;50156;37.772;-122.432;2022-08-11T09:10:08;101471.13;;;16.31;100.00
63970;BME280;50156;37.772;-122.432;2022-08-11T09:12:39;101471.04;;;16.32;100.00
63970;BME280;50156;37.772;-122.432;2022-08-11T09:15:10;101472.88;;;16.40;100.00
63970;BME280;50156;37.772;-122.432;2022-08-11T09:17:42;101476.72;;;16.31;100.00
63970;BME280;50156;37.772;-122.432;2022-08-11T09:20:13;101479.60;;;16.30;100.00
63970;BME280;50156;37.772;-122.432;2022-08-11T09:22:45;101474.01;;;16.33;100.00
63970;BME280;50156;37.772;-122.432;2022-08-11T09:25:15;101481.28;;;16.47;100.00
63970;BME280;50156;37.772;-122.432;2022-08-11T09:27:44;101482.43;;;16.40;100.00
63970;BME280;50156;37.772;-122.432;2022-08-11T09:30:14;101479.78;;;16.39;100.00
63970;BME280;50156;37.772;-122.432;2022-08-11T09:32:42;101481.01;;;16.45;100.00
63970;BME280;50156;37.772;-122.432;2022-08-11T09:35:11;101479.77;;;16.43;100.00
63970;BME280;50156;37.772;-122.432;2022-08-11T09:37:40;101483.18;;;16.38;100.00
63970;BME280;50156;37.772;-122.432;2022-08-11T09:40:11;101484.95;;;16.43;100.00
63970;BME280;50156;37.772;-122.432;2022-08-11T09:42:41;101484.84;;;16.48;100.00
63970;BME280;50156;37.772;-122.432;2022-08-11T09:45:11;101486.53;;;16.48;100.00
63970;BME280;50156;37.772;-122.432;2022-08-11T09:47:42;101485.39;;;16.44;100.00
63970;BME280;50156;37.772;-122.432;2022-08-11T09:50:15;101480.71;;;16.55;100.00
63970;BME280;50156;37.772;-122.432;2022-08-11T09:52:45;101483.49;;;16.54;100.00
63970;BME280;50156;37.772;-122.432;2022-08-11T09:55:15;101478.73;;;16.52;100.00
63970;BME280;50156;37.772;-122.432;2022-08-11T09:57:46;101479.66;;;16.68;100.00
63970;BME280;50156;37.772;-122.432;2022-08-11T10:00:15;101472.25;;;16.58;100.00
63970;BME280;50156;37.772;-122.432;2022-08-11T10:02:46;101469.06;;;16.58;100.00
63970;BME280;50156;37.772;-122.432;2022-08-11T10:05:18;101466.67;;;16.68;100.00
63970;BME280;50156;37.772;-122.432;2022-08-11T10:07:50;101461.10;;;16.67;100.00
63970;BME280;50156;37.772;-122.432;2022-08-11T10:10:21;101453.69;;;16.68;100.00
63970;BME280;50156;37.772;-122.432;2022-08-11T10:12:55;101452.22;;;16.67;100.00
63970;BME280;50156;37.772;-122.432;2022-08-11T10:15:26;101448.06;;;16.83;100.00
63970;BME280;50156;37.772;-122.432;2022-08-11T10:17:59;101447.05;;;16.71;100.00
63970;BME280;50156;37.772;-122.432;2022-08-11T10:20:31;101447.34;;;16.74;100.00
63970;BME280;50156;37.772;-122.432;2022-08-11T10:23:02;101443.66;;;16.74;100.00
63970;BME280;50156;37.772;-122.432;2022-08-11T10:25:30;101446.00;;;16.79;100.00
63970;BME280;50156;37.772;-122.432;2022-08-11T10:28:02;101443.06;;;16.75;100.00
63970;BME280;50156;37.772;-122.432;2022-08-11T10:30:31;101441.78;;;16.55;100.00
63970;BME280;50156;37.772;-122.432;2022-08-11T10:33:00;101438.97;;;16.63;100.00
63970;BME280;50156;37.772;-122.432;2022-08-11T10:35:31;101438.81;;;16.57;100.00
63970;BME280;50156;37.772;-122.432;2022-08-11T10:38:00;101435.50;;;16.52;100.00
63970;BME280;50156;37.772;-122.432;2022-08-11T10:40:30;101438.44;;;16.40;100.00
63970;BME280;50156;37.772;-122.432;2022-08-11T10:42:59;101437.43;;;16.45;100.00
63970;BME280;50156;37.772;-122.432;2022-08-11T10:45:31;101431.84;;;16.50;100.00
63970;BME280;50156;37.772;-122.432;2022-08-11T10:48:03;101435.25;;;16.40;100.00
63970;BME280;50156;37.772;-122.432;2022-08-11T10:50:33;101438.94;;;16.37;100.00
63970;BME280;50156;37.772;-122.432;2022-08-11T10:53:02;101440.74;;;16.38;100.00
63970;BME280;50156;37.772;-122.432;2022-08-11T10:55:31;101436.73;;;16.43;100.00
63970;BME280;50156;37.772;-122.432;2022-08-11T10:58:00;101435.97;;;16.34;100.00
63970;BME280;50156;37.772;-122.432;2022-08-11T11:00:30;101430.35;;;16.42;100.00
63970;BME280;50156;37.772;-122.432;2022-08-11T11:02:59;101423.68;;;16.35;100.00
63970;BME280;50156;37.772;-122.432;2022-08-11T11:05:30;101417.66;;;16.37;100.00
63970;BME280;50156;37.772;-122.432;2022-08-11T11:08:05;101415.56;;;16.40;100.00
63970;BME280;50156;37.772;-122.432;2022-08-11T11:10:39;101414.57;;;16.40;100.00
63970;BME280;50156;37.772;-122.432;2022-08-11T11:13:08;101410.21;;;16.23;100.00
63970;BME280;50156;37.772;-122.432;2022-08-11T11:15:37;101406.39;;;16.24;100.00
63970;BME280;50156;37.772;-122.432;2022-08-11T11:18:13;101402.72;;;16.19;100.00
63970;BME280;50156;37.772;-122.432;2022-08-11T11:20:44;101401.60;;;16.25;100.00
63970;BME280;50156;37.772;-122.432;2022-08-11T11:23:17;101400.19;;;16.34;100.00
63970;BME280;50156;37.772;-122.432;2022-08-11T11:26:13;101401.41;;;16.30;100.00
63970;BME280;50156;37.772;-122.432;2022-08-11T11:29:02;101404.06;;;16.35;100.00
63970;BME280;50156;37.772;-122.432;2022-08-11T11:31:47;101399.91;;;16.31;100.00
63970;BME280;50156;37.772;-122.432;2022-08-11T11:34:36;101397.00;;;16.31;100.00
63970;BME280;50156;37.772;-122.432;2022-08-11T11:37:07;101393.94;;;16.31;100.00
63970;BME280;50156;37.772;-122.432;2022-08-11T11:39:37;101396.02;;;16.33;100.00
63970;BME280;50156;37.772;-122.432;2022-08-11T11:42:09;101395.38;;;16.26;100.00
63970;BME280;50156;37.772;-122.432;2022-08-11T11:44:41;101397.54;;;16.40;100.00
63970;BME280;50156;37.772;-122.432;2022-08-11T11:47:11;101392.61;;;16.42;100.00
63970;BME280;50156;37.772;-122.432;2022-08-11T11:49:41;101398.33;;;16.42;100.00
63970;BME280;50156;37.772;-122.432;2022-08-11T11:52:15;101394.62;;;16.38;100.00
63970;BME280;50156;37.772;-122.432;2022-08-11T11:54:46;101394.73;;;16.30;100.00
63970;BME280;50156;37.772;-122.432;2022-08-11T11:57:16;101389.55;;;16.29;100.00
63970;BME280;50156;37.772;-122.432;2022-08-11T11:59:46;101392.82;;;16.35;100.00
63970;BME280;50156;37.772;-122.432;2022-08-11T12:02:15;101396.04;;;16.34;100.00
63970;BME280;50156;37.772;-122.432;2022-08-11T12:04:45;101395.81;;;16.20;100.00
63970;BME280;50156;37.772;-122.432;2022-08-11T12:07:14;101399.48;;;16.29;100.00
63970;BME280;50156;37.772;-122.432;2022-08-11T12:09:43;101401.51;;;16.35;100.00
63970;BME280;50156;37.772;-122.432;2022-08-11T12:12:13;101402.97;;;16.32;100.00
63970;BME280;50156;37.772;-122.432;2022-08-11T12:14:42;101400.32;;;16.29;100.00
63970;BME280;50156;37.772;-122.432;2022-08-11T12:17:11;101403.26;;;16.32;100.00
63970;BME280;50156;37.772;-122.432;2022-08-11T12:19:39;101398.00;;;16.36;100.00
63970;BME280;50156;37.772;-122.432;2022-08-11T12:22:08;101398.55;;;16.35;100.00
63970;BME280;50156;37.772;-122.432;2022-08-11T12:24:38;101396.29;;;16.27;100.00
63970;BME280;50156;37.772;-122.432;2022-08-11T12:27:08;101393.65;;;16.26;100.00
63970;BME280;50156;37.772;-122.432;2022-08-11T12:29:37;101391.36;;;16.26;100.00
63970;BME280;50156;37.772;-122.432;2022-08-11T12:32:07;101390.49;;;16.20;100.00
63970;BME280;50156;37.772;-122.432;2022-08-11T12:34:36;101394.78;;;16.16;100.00
63970;BME280;50156;37.772;-122.432;2022-08-11T12:37:06;101396.67;;;16.13;100.00
63970;BME280;50156;37.772;-122.432;2022-08-11T12:39:38;101401.56;;;16.14;100.00
63970;BME280;50156;37.772;-122.432;2022-08-11T12:42:12;101400.92;;;16.15;100.00
63970;BME280;50156;37.772;-122.432;2022-08-11T12:44:40;101397.26;;;16.23;100.00
63970;BME280;50156;37.772;-122.432;2022-08-11T12:47:10;101394.07;;;16.22;100.00
63970;BME280;50156;37.772;-122.432;2022-08-11T12:49:45;101394.01;;;16.15;100.00
63970;BME280;50156;37.772;-122.432;2022-08-11T12:52:21;101400.19;;;16.18;100.00
63970;BME280;50156;37.772;-122.432;2022-08-11T12:54:57;101402.95;;;16.15;100.00
63970;BME280;50156;37.772;-122.432;2022-08-11T12:57:30;101403.31;;;16.19;100.00
63970;BME280;50156;37.772;-122.432;2022-08-11T13:00:00;101400.64;;;16.26;100.00
63970;BME280;50156;37.772;-122.432;2022-08-11T13:02:29;101403.45;;;16.20;100.00
63970;BME280;50156;37.772;-122.432;2022-08-11T13:04:59;101404.70;;;16.21;100.00
63970;BME280;50156;37.772;-122.432;2022-08-11T13:07:28;101405.53;;;16.17;100.00
63970;BME280;50156;37.772;-122.432;2022-08-11T13:09:57;101398.62;;;16.16;100.00
63970;BME280;50156;37.772;-122.432;2022-08-11T13:12:30;101403.73;;;16.12;100.00
63970;BME280;50156;37.772;-122.432;2022-08-11T13:15:00;101404.92;;;16.12;100.00
63970;BME280;50156;37.772;-122.432;2022-08-11T13:17:30;101408.09;;;16.19;100.00
63970;BME280;50156;37.772;-122.432;2022-08-11T13:19:59;101413.36;;;16.17;100.00
63970;BME280;50156;37.772;-122.432;2022-08-11T13:22:29;101414.86;;;16.27;100.00
63970;BME280;50156;37.772;-122.432;2022-08-11T13:24:58;101411.86;;;16.19;100.00